createdAt,value
2023-03-06T00:00:21.441Z,88.47
2023-03-06T00:01:25.722Z,88.78
2023-03-06T00:02:29.685Z,88.73
2023-03-06T00:03:34.491Z,88.37
2023-03-06T00:04:38.779Z,88.52
2023-03-06T00:05:42.670Z,88.46
2023-03-06T00:06:47.210Z,88.74
2023-03-06T00:07:52.182Z,88.66
2023-03-06T00:08:56.228Z,88.67
2023-03-06T00:09:59.807Z,88.96
2023-03-06T00:11:03.712Z,88.91
2023-03-06T00:12:08.649Z,88.90
2023-03-06T00:13:16.660Z,88.90
2023-03-06T00:14:20.811Z,88.74
2023-03-06T00:15:26.751Z,88.84
2023-03-06T00:16:30.854Z,88.70
2023-03-06T00:17:34.838Z,89.16
2023-03-06T00:18:38.863Z,89.00
2023-03-06T00:19:42.782Z,89.09
2023-03-06T00:20:46.561Z,89.08
2023-03-06T00:21:51.201Z,89.13
2023-03-06T00:22:57.743Z,88.66
2023-03-06T00:24:01.783Z,89.06
2023-03-06T00:25:07.672Z,88.63
2023-03-06T00:26:12.572Z,88.74
2023-03-06T00:27:16.970Z,88.99
2023-03-06T00:28:21.261Z,89.21
2023-03-06T00:29:26.576Z,89.04
2023-03-06T00:30:31.803Z,89.24
2023-03-06T00:31:39.107Z,88.99
2023-03-06T00:32:43.944Z,89.22
2023-03-06T00:33:47.878Z,89.16
2023-03-06T00:34:56.154Z,89.02
2023-03-06T00:36:07.449Z,88.83
2023-03-06T00:37:11.112Z,88.76
2023-03-06T00:38:15.029Z,89.24
2023-03-06T00:39:19.367Z,88.88
2023-03-06T00:40:27.203Z,89.12
2023-03-06T00:41:31.579Z,89.12
2023-03-06T00:42:35.406Z,88.93
2023-03-06T00:43:39.755Z,89.20
2023-03-06T00:44:47.266Z,89.27
2023-03-06T00:45:51.678Z,89.33
2023-03-06T00:46:55.405Z,89.33
2023-03-06T00:47:59.142Z,89.55
2023-03-06T00:49:03.031Z,89.89
2023-03-06T00:50:09.201Z,90.43
2023-03-06T00:51:14.025Z,90.38
2023-03-06T00:52:18.132Z,89.99
2023-03-06T00:53:21.807Z,90.08
2023-03-06T00:54:25.451Z,89.83
2023-03-06T00:55:31.232Z,89.65
2023-03-06T00:56:35.000Z,89.65
2023-03-06T00:57:39.039Z,89.71
2023-03-06T00:58:42.914Z,89.76
2023-03-06T00:59:46.786Z,89.47
2023-03-06T01:00:50.715Z,89.55
2023-03-06T01:01:55.551Z,89.56
2023-03-06T01:02:59.373Z,89.34
2023-03-06T01:04:04.642Z,89.69
2023-03-06T01:05:09.903Z,89.75
2023-03-06T01:06:13.988Z,89.91
2023-03-06T01:07:17.908Z,89.75
2023-03-06T01:08:21.905Z,89.58
2023-03-06T01:09:26.138Z,89.89
2023-03-06T01:10:30.069Z,89.90
2023-03-06T01:11:33.990Z,90.06
2023-03-06T01:12:37.802Z,89.56
2023-03-06T01:13:41.901Z,89.94
2023-03-06T01:14:45.761Z,89.82
2023-03-06T01:15:50.123Z,89.79
2023-03-06T01:16:54.217Z,89.79
2023-03-06T01:17:58.832Z,89.53
2023-03-06T01:19:03.202Z,89.86
2023-03-06T01:20:08.363Z,89.61
2023-03-06T01:21:13.245Z,89.42
2023-03-06T01:22:17.271Z,89.34
2023-03-06T01:23:21.042Z,89.38
2023-03-06T01:24:25.996Z,89.60
2023-03-06T01:25:29.804Z,89.85
2023-03-06T01:26:34.649Z,90.05
2023-03-06T01:27:38.533Z,90.00
2023-03-06T01:28:42.633Z,90.37
2023-03-06T01:29:46.671Z,90.01
2023-03-06T01:30:50.628Z,89.67
2023-03-06T01:31:54.398Z,89.34
2023-03-06T01:32:59.851Z,89.24
2023-03-06T01:34:04.085Z,89.33
2023-03-06T01:35:08.684Z,89.02
2023-03-06T01:36:13.640Z,88.95
2023-03-06T01:37:17.675Z,89.06
2023-03-06T01:38:22.203Z,89.43
2023-03-06T01:39:26.602Z,89.38
2023-03-06T01:40:35.027Z,89.13
2023-03-06T01:41:39.097Z,89.00
2023-03-06T01:42:43.380Z,89.29
2023-03-06T01:43:47.496Z,89.22
2023-03-06T01:45:17.428Z,89.21
2023-03-06T01:46:33.609Z,89.24
2023-03-06T01:47:37.419Z,89.34
2023-03-06T01:48:41.468Z,89.66
2023-03-06T01:49:45.093Z,89.41
2023-03-06T01:50:52.815Z,89.64
2023-03-06T01:52:04.093Z,89.43
2023-03-06T01:53:08.178Z,89.26
2023-03-06T01:54:28.797Z,88.97
2023-03-06T01:55:36.209Z,89.01
2023-03-06T01:56:44.531Z,89.08
2023-03-06T01:57:54.974Z,89.11
2023-03-06T01:58:59.669Z,88.94
2023-03-06T02:00:12.983Z,88.83
2023-03-06T02:01:19.365Z,89.03
2023-03-06T02:02:23.417Z,88.95
2023-03-06T02:03:30.235Z,88.81
2023-03-06T02:04:37.498Z,88.82
2023-03-06T02:05:45.002Z,88.58
2023-03-06T02:06:49.815Z,88.80
2023-03-06T02:07:54.983Z,88.66
2023-03-06T02:09:03.747Z,88.49
2023-03-06T02:10:09.568Z,89.27
2023-03-06T02:11:23.610Z,89.06
2023-03-06T02:12:28.632Z,89.23
2023-03-06T02:13:32.897Z,88.86
2023-03-06T02:14:38.532Z,88.67
2023-03-06T02:15:42.315Z,89.14
2023-03-06T02:16:46.376Z,89.01
2023-03-06T02:17:52.934Z,88.77
2023-03-06T02:19:00.549Z,88.86
2023-03-06T02:20:40.179Z,88.83
2023-03-06T02:21:43.938Z,89.00
2023-03-06T02:23:34.840Z,88.81
2023-03-06T02:24:56.908Z,89.12
2023-03-06T02:26:02.590Z,89.05
2023-03-06T02:27:08.435Z,88.98
2023-03-06T02:28:19.593Z,88.99
2023-03-06T02:29:28.390Z,88.91
2023-03-06T02:30:32.898Z,88.77
2023-03-06T02:31:36.693Z,89.17
2023-03-06T02:32:40.782Z,89.60
2023-03-06T02:33:45.129Z,89.16
2023-03-06T02:34:53.775Z,89.10
2023-03-06T02:36:14.673Z,89.10
2023-03-06T02:37:19.201Z,89.06
2023-03-06T02:38:29.405Z,88.94
2023-03-06T02:39:39.625Z,89.04
2023-03-06T02:40:47.909Z,89.21
2023-03-06T02:41:51.917Z,89.32
2023-03-06T02:42:58.401Z,89.78
2023-03-06T02:44:02.740Z,89.92
2023-03-06T02:45:13.030Z,89.69
2023-03-06T02:46:20.417Z,89.31
2023-03-06T02:47:24.113Z,89.43
2023-03-06T02:48:27.734Z,89.55
2023-03-06T02:49:31.742Z,89.54
2023-03-06T02:50:36.223Z,89.60
2023-03-06T02:51:40.020Z,89.93
2023-03-06T02:52:43.784Z,89.76
2023-03-06T02:53:47.422Z,89.44
2023-03-06T02:54:51.102Z,89.41
2023-03-06T02:55:55.121Z,89.25
2023-03-06T02:56:58.902Z,89.35
2023-03-06T02:58:04.229Z,89.74
2023-03-06T02:59:08.266Z,89.38
2023-03-06T03:00:14.351Z,89.37
2023-03-06T12:16:09.676Z,44.18
2023-03-06T12:17:27.401Z,43.71
2023-03-06T12:19:15.546Z,43.41
2023-03-06T12:20:46.382Z,43.23
2023-03-06T12:22:32.454Z,43.05
2023-03-06T12:24:10.041Z,43.44
2023-03-06T12:25:36.908Z,43.49
2023-03-06T12:27:07.873Z,42.86
2023-03-06T12:28:26.651Z,43.49
2023-03-06T12:30:36.389Z,43.11
2023-03-06T12:32:08.846Z,42.83
2023-03-06T12:33:32.295Z,42.48
2023-03-06T12:35:05.873Z,42.96
2023-03-06T12:36:30.096Z,42.43
2023-03-06T12:38:10.657Z,43.06
2023-03-06T12:39:44.917Z,42.91
2023-03-06T12:41:14.784Z,43.00
2023-03-06T12:42:49.099Z,42.74
2023-03-06T12:44:10.280Z,42.93
2023-03-06T12:45:37.566Z,43.01
2023-03-06T12:47:04.145Z,43.03
2023-03-06T12:48:22.698Z,43.20
2023-03-06T12:49:32.631Z,43.40
2023-03-06T12:50:38.990Z,43.92
2023-03-06T12:51:45.532Z,43.64
2023-03-06T12:52:52.238Z,43.66
2023-03-06T12:54:00.268Z,43.70
2023-03-06T12:55:08.642Z,43.01
2023-03-06T12:56:18.642Z,43.69
2023-03-06T12:57:26.044Z,43.76
2023-03-06T12:58:30.163Z,43.57
2023-03-06T12:59:37.916Z,43.59
2023-03-06T13:01:04.991Z,43.41
2023-03-06T13:02:25.014Z,42.96
2023-03-06T13:03:56.196Z,43.20
2023-03-06T13:05:24.935Z,43.60
2023-03-06T13:06:50.277Z,43.43
2023-03-06T13:08:11.298Z,43.19
2023-03-06T13:10:12.375Z,43.57
2023-03-06T13:11:38.086Z,43.71
2023-03-06T13:13:00.935Z,43.78
2023-03-06T13:14:54.610Z,44.41
2023-03-06T13:16:10.394Z,44.71
2023-03-06T13:17:23.849Z,44.25
2023-03-06T13:18:50.556Z,44.43
2023-03-06T13:20:35.268Z,43.58
2023-03-06T13:22:02.220Z,43.90
2023-03-06T13:23:33.482Z,43.70
2023-03-06T13:24:38.789Z,43.61
2023-03-06T13:25:51.060Z,43.12
2023-03-06T13:27:12.797Z,43.67
2023-03-06T13:28:50.335Z,44.99
2023-03-06T13:30:42.439Z,45.77
2023-03-06T13:31:47.015Z,45.97
2023-03-06T13:32:53.066Z,46.04
2023-03-06T13:34:36.375Z,45.58
2023-03-06T13:35:47.706Z,45.50
2023-03-06T13:36:52.441Z,45.75
2023-03-06T13:37:57.975Z,46.02
2023-03-06T13:39:14.121Z,45.83
2023-03-06T13:40:38.661Z,45.62
2023-03-06T13:41:59.387Z,45.75
2023-03-06T13:43:19.016Z,45.20
2023-03-06T13:44:25.615Z,45.26
2023-03-06T13:45:44.276Z,44.85
2023-03-06T13:47:00.149Z,44.61
2023-03-06T13:48:30.277Z,44.60
2023-03-06T13:49:31.716Z,44.13
2023-03-06T13:50:47.883Z,44.31
2023-03-06T13:51:54.609Z,43.93
2023-03-06T13:53:46.173Z,44.20
2023-03-06T13:55:30.638Z,44.62
2023-03-06T13:57:08.252Z,43.99
2023-03-06T13:58:37.307Z,43.84
2023-03-06T14:00:16.676Z,44.49
2023-03-06T14:01:58.285Z,47.82
2023-03-06T14:04:00.323Z,49.93
2023-03-06T14:05:15.668Z,53.55
2023-03-06T14:06:52.733Z,54.81
2023-03-06T14:08:13.317Z,55.85
2023-03-06T14:09:42.621Z,57.02
2023-03-06T14:11:19.429Z,58.15
2023-03-06T14:12:34.178Z,59.03
2023-03-06T14:13:50.994Z,59.03
2023-03-06T14:15:17.552Z,58.97
2023-03-06T14:16:49.057Z,59.50
2023-03-06T14:18:01.725Z,61.13
2023-03-06T14:19:08.686Z,61.88
2023-03-06T14:20:22.094Z,61.54
2023-03-06T14:21:42.480Z,62.56
2023-03-06T14:22:46.490Z,62.02
2023-03-06T14:24:03.162Z,63.01
2023-03-06T14:25:31.921Z,63.94
2023-03-06T14:26:50.056Z,64.02
2023-03-06T14:27:58.172Z,64.08
2023-03-06T14:29:06.095Z,63.02
2023-03-06T14:30:21.340Z,64.38
2023-03-06T14:31:37.807Z,64.24
2023-03-06T14:32:43.748Z,64.50
2023-03-06T14:33:58.740Z,64.42
2023-03-06T14:35:02.957Z,64.43
2023-03-06T14:36:14.657Z,64.09
2023-03-06T14:37:25.343Z,65.00
2023-03-06T14:38:42.909Z,65.43
2023-03-06T14:39:47.038Z,65.31
2023-03-06T14:40:52.533Z,64.94
2023-03-06T14:42:25.342Z,64.65
2023-03-06T14:43:29.132Z,65.00
2023-03-06T14:44:33.433Z,64.89
2023-03-06T14:45:37.386Z,64.33
2023-03-06T14:46:41.347Z,64.77
2023-03-06T14:47:53.382Z,63.78
2023-03-06T14:49:00.239Z,63.38
2023-03-06T14:50:29.756Z,63.76
2023-03-06T14:51:46.358Z,63.15
2023-03-06T14:53:18.356Z,63.11
2023-03-06T14:54:34.959Z,63.52
2023-03-06T14:55:45.115Z,63.42
2023-03-06T14:56:54.863Z,62.90
2023-03-06T14:58:24.856Z,62.89
2023-03-06T14:59:39.331Z,62.70
2023-03-06T15:00:50.133Z,62.49
2023-03-06T15:02:06.071Z,61.53
2023-03-06T15:03:28.016Z,61.71
2023-03-06T15:05:12.397Z,61.44
2023-03-06T15:06:25.863Z,60.75
2023-03-06T15:07:33.563Z,60.59
2023-03-06T15:08:40.643Z,60.09
2023-03-06T15:09:49.808Z,59.56
2023-03-06T15:11:20.329Z,59.22
2023-03-06T15:12:24.589Z,58.71
2023-03-06T15:13:32.846Z,58.41
2023-03-06T15:14:42.979Z,58.36
2023-03-06T15:16:11.753Z,57.62
2023-03-06T15:17:19.183Z,57.85
2023-03-06T15:19:01.935Z,58.05
2023-03-06T15:20:28.168Z,58.01
2023-03-06T15:21:39.273Z,58.91
2023-03-06T15:22:44.219Z,58.18
2023-03-06T15:23:53.920Z,58.33
2023-03-06T15:25:21.727Z,57.74
2023-03-06T15:26:37.386Z,57.83
2023-03-06T15:27:47.934Z,57.91
2023-03-06T15:29:09.469Z,57.61
2023-03-06T15:30:41.222Z,57.78
2023-03-06T15:31:46.537Z,57.76
2023-03-06T15:32:51.662Z,57.62
2023-03-06T15:34:20.279Z,57.79
2023-03-06T15:35:37.362Z,57.85
2023-03-06T15:36:58.953Z,57.45
2023-03-06T15:38:04.834Z,57.50
2023-03-06T15:39:41.188Z,57.47
2023-03-06T15:40:59.014Z,57.17
2023-03-06T15:42:26.629Z,56.97
2023-03-06T15:43:40.200Z,57.06
2023-03-06T15:44:56.404Z,57.19
2023-03-06T15:46:05.163Z,56.84
2023-03-06T15:47:14.665Z,56.90
2023-03-06T15:48:19.413Z,56.51
2023-03-06T15:49:23.557Z,56.40
2023-03-06T15:50:29.499Z,56.44
2023-03-06T15:51:34.108Z,56.70
2023-03-06T15:52:37.897Z,56.47
2023-03-06T15:53:43.904Z,56.23
2023-03-06T15:54:47.963Z,56.38
2023-03-06T15:55:53.888Z,56.42
2023-03-06T15:56:57.777Z,56.12
2023-03-06T15:58:03.721Z,55.95
2023-03-06T15:59:33.206Z,56.11
2023-03-06T16:00:41.001Z,55.29
2023-03-06T16:01:45.593Z,55.21
2023-03-06T16:02:49.203Z,55.52
2023-03-06T16:03:53.275Z,55.18
2023-03-06T16:04:57.447Z,54.42
2023-03-06T16:06:01.249Z,53.98
2023-03-06T16:07:06.046Z,53.78
2023-03-06T16:08:15.107Z,54.09
2023-03-06T16:09:18.884Z,54.01
2023-03-06T16:10:27.682Z,54.28
2023-03-06T16:11:43.749Z,54.09
2023-03-06T16:13:03.183Z,53.62
2023-03-06T16:14:23.884Z,53.68
2023-03-06T16:15:29.890Z,53.57
2023-03-06T16:16:39.688Z,53.30
2023-03-06T16:17:43.819Z,53.39
2023-03-06T16:18:47.897Z,53.41
2023-03-06T16:19:52.137Z,53.13
2023-03-06T16:20:55.985Z,53.00
2023-03-06T16:22:00.169Z,53.10
2023-03-06T16:23:11.617Z,52.99
2023-03-06T16:24:35.714Z,52.98
2023-03-06T16:25:47.528Z,53.04
2023-03-06T16:26:56.365Z,52.69
2023-03-06T16:28:00.257Z,52.62
2023-03-06T16:29:04.675Z,52.00
2023-03-06T16:30:20.589Z,51.89
2023-03-06T16:31:24.757Z,51.72
2023-03-06T16:32:28.893Z,51.61
2023-03-06T16:33:32.609Z,51.96
2023-03-06T16:34:36.165Z,51.84
2023-03-06T16:35:41.367Z,51.78
2023-03-06T16:36:45.629Z,52.00
2023-03-06T16:37:49.870Z,51.70
2023-03-06T16:38:54.239Z,51.78
2023-03-06T16:39:58.044Z,51.24
2023-03-06T16:41:02.053Z,51.57
2023-03-06T16:42:13.000Z,51.71
2023-03-06T16:43:17.405Z,52.02
2023-03-06T16:44:21.816Z,51.93
2023-03-06T16:45:28.494Z,51.59
2023-03-06T16:46:41.692Z,51.07
2023-03-06T16:47:48.837Z,51.05
2023-03-06T16:48:53.340Z,51.62
2023-03-06T16:50:02.049Z,51.37
2023-03-06T16:51:16.145Z,51.62
2023-03-06T16:52:20.252Z,51.51
2023-03-06T16:53:24.081Z,51.05
2023-03-06T16:54:27.759Z,51.28
2023-03-06T16:55:32.548Z,50.63
2023-03-06T16:56:36.236Z,50.78
2023-03-06T16:57:40.680Z,51.05
2023-03-06T16:58:45.131Z,51.01
2023-03-06T16:59:49.642Z,51.09
2023-03-06T17:00:54.739Z,51.03
2023-03-06T17:01:58.606Z,50.62
2023-03-06T17:03:02.988Z,50.74
2023-03-06T17:04:08.072Z,50.87
2023-03-06T17:05:13.334Z,51.29
2023-03-06T17:06:21.348Z,50.83
2023-03-06T17:07:25.336Z,51.06
2023-03-06T17:08:30.056Z,51.34
2023-03-06T17:09:33.580Z,51.70
2023-03-06T17:10:42.100Z,52.30
2023-03-06T17:11:46.976Z,52.48
2023-03-06T17:12:53.034Z,52.44
2023-03-06T17:13:56.920Z,52.90
2023-03-06T17:15:00.961Z,53.43
2023-03-06T17:16:08.615Z,54.04
2023-03-06T17:17:12.531Z,54.59
2023-03-06T17:18:16.197Z,55.37
2023-03-06T17:19:21.057Z,55.20
2023-03-06T17:20:24.800Z,55.68
2023-03-06T17:21:30.571Z,56.09
2023-03-06T17:22:36.468Z,56.16
2023-03-06T17:23:41.018Z,56.91
2023-03-06T17:24:52.290Z,57.71
2023-03-06T17:26:15.789Z,57.82
2023-03-06T17:27:22.713Z,57.59
2023-03-06T17:28:28.334Z,58.23
2023-03-06T17:29:32.854Z,58.08
2023-03-06T17:30:37.077Z,57.86
2023-03-06T17:31:41.717Z,58.22
2023-03-06T17:32:45.880Z,58.17
2023-03-06T17:33:54.418Z,58.71
2023-03-06T17:34:59.215Z,58.66
2023-03-06T17:36:03.120Z,58.47
2023-03-06T17:37:11.561Z,58.90
2023-03-06T17:38:19.640Z,59.13
2023-03-06T17:39:24.030Z,58.79
2023-03-06T17:40:28.182Z,59.12
2023-03-06T17:41:34.178Z,59.92
2023-03-06T17:42:38.018Z,59.54
2023-03-06T17:43:42.277Z,59.50
2023-03-06T17:44:46.135Z,59.68
2023-03-06T17:45:50.077Z,60.15
2023-03-06T17:46:54.046Z,59.72
2023-03-06T17:48:00.545Z,60.08
2023-03-06T17:49:04.991Z,60.61
2023-03-06T17:50:09.982Z,61.19
2023-03-06T17:51:14.139Z,61.17
2023-03-06T17:52:17.867Z,61.86
2023-03-06T17:53:23.651Z,61.58
2023-03-06T17:54:30.347Z,60.77
2023-03-06T17:55:34.179Z,61.46
2023-03-06T17:56:38.407Z,61.46
2023-03-06T17:57:42.273Z,61.46
2023-03-06T17:58:45.858Z,61.27
2023-03-06T17:59:49.910Z,61.34
2023-03-06T18:00:54.374Z,61.81
2023-03-06T18:01:59.586Z,61.51
2023-03-06T18:03:03.939Z,61.48
2023-03-06T18:04:07.865Z,61.68
2023-03-06T18:05:12.633Z,61.80
2023-03-06T18:06:18.329Z,62.06
2023-03-06T18:07:22.427Z,61.98
2023-03-06T18:08:27.643Z,62.58
2023-03-06T18:09:32.489Z,62.62
2023-03-06T18:10:43.559Z,62.83
2023-03-06T18:11:47.150Z,62.92
2023-03-06T18:12:51.288Z,62.97
2023-03-06T18:13:55.426Z,63.42
2023-03-06T18:14:59.490Z,63.34
2023-03-06T18:16:03.991Z,64.27
2023-03-06T18:17:08.322Z,63.68
2023-03-06T18:18:11.923Z,63.66
2023-03-06T18:19:16.602Z,64.16
2023-03-06T18:20:20.819Z,64.01
2023-03-06T18:21:25.679Z,63.83
2023-03-06T18:22:29.393Z,64.35
2023-03-06T18:23:33.372Z,64.46
2023-03-06T18:24:37.617Z,64.44
2023-03-06T18:25:41.690Z,63.92
2023-03-06T18:26:45.911Z,63.74
2023-03-06T18:27:49.768Z,64.14
2023-03-06T18:29:06.760Z,64.02
2023-03-06T18:30:11.818Z,64.11
2023-03-06T18:31:25.492Z,64.47
2023-03-06T18:32:29.404Z,64.35
2023-03-06T18:33:33.206Z,64.45
2023-03-06T18:34:37.356Z,64.34
2023-03-06T18:35:44.339Z,64.86
2023-03-06T18:36:52.763Z,64.50
2023-03-06T18:37:56.590Z,64.69
2023-03-06T18:39:04.313Z,65.10
2023-03-06T18:40:11.262Z,65.00
2023-03-06T18:41:24.805Z,65.15
2023-03-06T18:42:28.883Z,65.38
2023-03-06T18:43:32.605Z,65.49
2023-03-06T18:44:36.509Z,65.74
2023-03-06T18:45:44.363Z,65.35
2023-03-06T18:46:48.897Z,65.28
2023-03-06T18:47:55.383Z,65.37
2023-03-06T18:49:00.137Z,65.78
2023-03-06T18:50:10.493Z,65.62
2023-03-06T18:51:16.592Z,65.68
2023-03-06T18:52:20.657Z,65.86
2023-03-06T18:53:24.471Z,66.09
2023-03-06T18:54:29.929Z,65.99
2023-03-06T18:55:36.358Z,66.20
2023-03-06T18:56:44.491Z,66.17
2023-03-06T18:57:48.104Z,65.97
2023-03-06T18:59:04.833Z,66.21
2023-03-06T19:00:10.539Z,65.84
2023-03-06T19:01:17.427Z,66.26
2023-03-06T19:02:21.436Z,66.21
2023-03-06T19:03:25.407Z,66.42
2023-03-06T19:04:29.094Z,67.24
2023-03-06T19:05:43.170Z,66.80
2023-03-06T19:06:47.273Z,67.21
2023-03-06T19:07:51.477Z,67.05
2023-03-06T19:09:04.110Z,67.09
2023-03-06T19:10:09.820Z,67.62
2023-03-06T19:11:18.338Z,67.78
2023-03-06T19:12:23.064Z,67.68
2023-03-06T19:13:29.351Z,67.08
2023-03-06T19:14:36.494Z,67.35
2023-03-06T19:15:46.666Z,67.11
2023-03-06T19:16:51.024Z,67.51
2023-03-06T19:17:55.801Z,67.34
2023-03-06T19:19:02.940Z,67.71
2023-03-06T19:20:08.359Z,67.29
2023-03-06T19:21:20.037Z,67.62
2023-03-06T19:22:24.260Z,67.71
2023-03-06T19:23:28.123Z,67.65
2023-03-06T19:24:35.103Z,67.72
2023-03-06T19:25:43.325Z,68.07
2023-03-06T19:26:52.582Z,67.75
2023-03-06T19:28:00.280Z,67.68
2023-03-06T19:29:11.899Z,67.80
2023-03-06T19:30:17.356Z,67.65
2023-03-06T19:31:27.581Z,67.65
2023-03-06T19:32:34.336Z,67.79
2023-03-06T19:33:46.050Z,67.93
2023-03-06T19:34:50.855Z,67.93
2023-03-06T19:35:56.233Z,67.84
2023-03-06T19:37:04.656Z,67.63
2023-03-06T19:38:10.601Z,67.66
2023-03-06T19:39:20.547Z,67.86
2023-03-06T19:40:31.750Z,67.60
2023-03-06T19:41:35.915Z,67.92
2023-03-06T19:42:43.062Z,68.06
2023-03-06T19:43:53.115Z,67.85
2023-03-06T19:44:58.695Z,67.99
2023-03-06T19:46:03.806Z,67.69
2023-03-06T19:47:07.854Z,67.86
2023-03-06T19:48:13.730Z,67.82
2023-03-06T19:49:22.371Z,67.48
2023-03-06T19:50:30.900Z,67.85
2023-03-06T19:51:35.140Z,67.64
2023-03-06T19:52:39.236Z,68.12
2023-03-06T19:53:44.820Z,67.81
2023-03-06T19:54:49.055Z,67.92
2023-03-06T19:55:53.303Z,67.83
2023-03-06T19:56:57.916Z,67.90
2023-03-06T19:58:04.513Z,68.11
2023-03-06T19:59:09.227Z,68.26
2023-03-06T20:00:17.959Z,68.25
2023-03-06T20:01:37.781Z,68.04
2023-03-06T20:02:45.030Z,68.30
2023-03-06T20:03:51.040Z,68.43
2023-03-06T20:04:55.590Z,68.28
2023-03-06T20:05:59.445Z,68.27
2023-03-06T20:07:05.487Z,68.37
2023-03-06T20:08:11.194Z,68.87
2023-03-06T20:09:14.901Z,68.50
2023-03-06T20:10:19.495Z,69.17
2023-03-06T20:11:31.577Z,68.89
2023-03-06T20:12:36.234Z,68.95
2023-03-06T20:13:46.929Z,68.98
2023-03-06T20:14:51.642Z,68.74
2023-03-06T20:15:56.304Z,68.97
2023-03-06T20:17:00.059Z,69.15
2023-03-06T20:18:06.404Z,69.12
2023-03-06T20:19:14.407Z,68.93
2023-03-06T20:20:19.272Z,68.95
2023-03-06T20:21:23.538Z,68.88
2023-03-06T20:22:30.832Z,69.02
2023-03-06T20:23:35.208Z,68.98
2023-03-06T20:24:39.165Z,69.13
2023-03-06T20:25:43.120Z,68.99
2023-03-06T20:26:52.673Z,69.02
2023-03-06T20:27:56.428Z,69.19
2023-03-06T20:29:01.161Z,69.24
2023-03-06T20:30:09.786Z,69.38
2023-03-06T20:31:18.128Z,69.19
2023-03-06T20:32:22.694Z,69.25
2023-03-06T20:33:27.447Z,69.55
2023-03-06T20:34:31.331Z,69.22
2023-03-06T20:35:39.679Z,69.35
2023-03-06T20:36:43.431Z,69.14
2023-03-06T20:37:48.487Z,69.40
2023-03-06T20:38:52.207Z,69.38
2023-03-06T20:39:56.364Z,69.47
2023-03-06T20:41:00.130Z,69.60
2023-03-06T20:42:07.025Z,69.60
2023-03-06T20:43:11.107Z,69.72
2023-03-06T20:44:19.682Z,69.76
2023-03-06T20:45:24.987Z,69.49
2023-03-06T20:46:29.939Z,69.71
2023-03-06T20:47:33.925Z,70.02
2023-03-06T20:48:39.025Z,70.09
2023-03-06T20:49:43.081Z,69.90
2023-03-06T20:50:47.449Z,70.08
2023-03-06T20:51:51.484Z,70.00
2023-03-06T20:52:58.524Z,70.02
2023-03-06T20:54:03.399Z,70.09
2023-03-06T20:55:08.788Z,70.22
2023-03-06T20:56:19.402Z,70.27
2023-03-06T20:57:23.685Z,70.12
2023-03-06T20:58:30.235Z,70.15
2023-03-06T20:59:33.999Z,70.30
2023-03-06T21:00:39.203Z,70.06
2023-03-06T21:01:45.889Z,70.21
2023-03-06T21:02:49.900Z,70.29
2023-03-06T21:03:54.796Z,70.29
2023-03-06T21:05:01.003Z,70.29
2023-03-06T21:06:07.519Z,70.38
2023-03-06T21:07:16.063Z,70.22
2023-03-06T21:08:23.650Z,70.47
2023-03-06T21:09:27.352Z,70.80
2023-03-06T21:10:31.295Z,70.52
2023-03-06T21:11:35.813Z,70.34
2023-03-06T21:12:40.124Z,70.77
2023-03-06T21:13:44.012Z,70.75
2023-03-06T21:14:47.588Z,70.81
2023-03-06T21:15:51.362Z,70.86
2023-03-06T21:16:55.160Z,70.71
2023-03-06T21:17:59.352Z,70.88
2023-03-06T21:19:03.898Z,70.65
2023-03-06T21:20:11.244Z,70.71
2023-03-06T21:21:22.085Z,71.09
2023-03-06T21:22:26.877Z,71.01
2023-03-06T21:23:31.915Z,71.22
2023-03-06T21:24:36.827Z,71.36
2023-03-06T21:25:52.141Z,71.51
2023-03-06T21:26:56.470Z,71.42
2023-03-06T21:28:00.554Z,71.53
2023-03-06T21:29:05.066Z,71.62
2023-03-06T21:30:10.155Z,71.52
2023-03-06T21:31:18.287Z,71.56
2023-03-06T21:32:23.172Z,71.76
2023-03-06T21:33:29.621Z,71.77
2023-03-06T21:34:33.361Z,71.75
2023-03-06T21:35:45.726Z,71.84
2023-03-06T21:36:53.030Z,71.93
2023-03-06T21:37:56.856Z,71.76
2023-03-06T21:39:00.919Z,71.90
2023-03-06T21:40:08.239Z,71.96
2023-03-06T21:41:24.892Z,72.36
2023-03-06T21:42:29.521Z,72.07
2023-03-06T21:43:33.277Z,72.22
2023-03-06T21:44:37.164Z,72.24
2023-03-06T21:45:46.645Z,72.38
2023-03-06T21:46:50.293Z,72.15
2023-03-06T21:47:54.202Z,71.96
2023-03-06T21:48:59.045Z,72.25
2023-03-06T21:50:03.391Z,72.57
2023-03-06T21:51:15.864Z,72.54
2023-03-06T21:52:19.923Z,72.47
2023-03-06T21:53:23.463Z,72.30
2023-03-06T21:54:29.461Z,72.37
2023-03-06T21:55:33.367Z,72.47
2023-03-06T21:56:37.548Z,72.80
2023-03-06T21:57:41.463Z,72.86
2023-03-06T21:58:48.757Z,72.75
2023-03-06T21:59:52.742Z,72.71
2023-03-06T22:00:57.329Z,72.55
2023-03-06T22:02:01.725Z,72.92
2023-03-06T22:03:06.806Z,72.78
2023-03-06T22:04:10.460Z,72.72
2023-03-06T22:05:15.045Z,73.09
2023-03-06T22:06:23.624Z,72.91
2023-03-06T22:07:28.932Z,72.98
2023-03-06T22:08:32.484Z,73.00
2023-03-06T22:09:37.544Z,73.23
2023-03-06T22:10:42.078Z,73.21
2023-03-06T22:11:46.444Z,72.93
2023-03-06T22:12:50.225Z,72.86
2023-03-06T22:13:54.129Z,73.06
2023-03-06T22:14:58.494Z,73.23
2023-03-06T22:16:02.318Z,73.35
2023-03-06T22:17:06.112Z,73.36
2023-03-06T22:18:15.971Z,73.54
2023-03-06T22:19:20.163Z,73.89
2023-03-06T22:20:23.795Z,73.98
2023-03-06T22:21:27.752Z,74.05
2023-03-06T22:22:33.108Z,73.68
2023-03-06T22:23:37.799Z,73.82
2023-03-06T22:24:41.423Z,73.85
2023-03-06T22:25:45.127Z,73.68
2023-03-06T22:26:48.890Z,73.72
2023-03-06T22:27:52.847Z,73.76
2023-03-06T22:28:57.307Z,73.89
2023-03-06T22:30:00.963Z,73.51
2023-03-06T22:31:18.220Z,73.79
2023-03-06T22:32:22.202Z,73.74
2023-03-06T22:33:26.265Z,73.67
2023-03-06T22:34:30.201Z,73.83
2023-03-06T22:35:34.385Z,73.87
2023-03-06T22:36:38.872Z,74.30
2023-03-06T22:37:42.607Z,74.01
2023-03-06T22:38:48.661Z,74.20
2023-03-06T22:39:52.395Z,74.03
2023-03-06T22:40:59.472Z,74.18
2023-03-06T22:42:03.285Z,74.05
2023-03-06T22:43:07.117Z,74.04
2023-03-06T22:44:18.225Z,73.89
2023-03-06T22:45:22.467Z,74.21
2023-03-06T22:46:27.906Z,74.31
2023-03-06T22:47:31.666Z,74.30
2023-03-06T22:48:35.792Z,74.18
2023-03-06T22:49:40.533Z,74.26
2023-03-06T22:50:44.375Z,74.28
2023-03-06T22:51:48.192Z,74.23
2023-03-06T22:52:51.935Z,74.81
2023-03-06T22:53:55.880Z,74.98
2023-03-06T22:54:59.987Z,74.87
2023-03-06T22:56:11.100Z,74.48
2023-03-06T22:57:14.889Z,74.69
2023-03-06T22:58:19.082Z,74.40
2023-03-06T22:59:22.727Z,74.54
2023-03-06T23:00:26.543Z,74.42
2023-03-06T23:01:35.793Z,74.54
2023-03-06T23:02:39.432Z,74.56
2023-03-06T23:03:51.539Z,74.68
2023-03-06T23:04:55.250Z,74.49
2023-03-06T23:06:02.606Z,74.40
2023-03-06T23:07:06.819Z,74.04
2023-03-06T23:08:10.774Z,73.91
2023-03-06T23:09:21.118Z,74.11
2023-03-06T23:10:27.725Z,73.92
2023-03-06T23:11:32.781Z,74.17
2023-03-06T23:12:37.356Z,74.01
2023-03-06T23:13:41.250Z,73.85
2023-03-06T23:14:49.669Z,74.10
2023-03-06T23:15:53.470Z,74.08
2023-03-06T23:16:57.870Z,73.97
2023-03-06T23:18:01.663Z,73.96
2023-03-06T23:19:06.234Z,73.92
2023-03-06T23:20:11.875Z,73.86
2023-03-06T23:21:18.380Z,73.79
2023-03-06T23:22:22.787Z,73.75
2023-03-06T23:23:27.329Z,73.70
2023-03-06T23:24:32.177Z,73.93
2023-03-06T23:25:36.523Z,73.75
2023-03-06T23:26:40.902Z,73.53
2023-03-06T23:27:44.920Z,73.64
2023-03-06T23:28:49.096Z,73.86
2023-03-06T23:29:55.824Z,73.62
2023-03-06T23:30:59.967Z,73.44
2023-03-06T23:32:04.592Z,73.59
2023-03-06T23:33:09.795Z,73.65
2023-03-06T23:34:13.380Z,73.71
2023-03-06T23:35:17.186Z,74.01
2023-03-06T23:36:21.043Z,73.73
2023-03-06T23:37:24.935Z,73.76
2023-03-06T23:38:30.367Z,73.90
2023-03-06T23:39:34.132Z,73.82
2023-03-06T23:40:38.799Z,73.53
2023-03-06T23:41:43.251Z,73.58
2023-03-06T23:42:46.855Z,73.60
2023-03-06T23:43:54.643Z,73.62
2023-03-06T23:45:00.443Z,73.72
2023-03-06T23:46:07.377Z,73.70
2023-03-06T23:47:11.349Z,73.71
2023-03-06T23:48:15.053Z,73.49
2023-03-06T23:49:21.043Z,73.71
2023-03-06T23:50:26.486Z,73.58
2023-03-06T23:51:30.142Z,73.89
2023-03-06T23:52:34.229Z,73.80
2023-03-06T23:53:38.313Z,73.78
2023-03-06T23:54:42.463Z,74.02
2023-03-06T23:55:49.451Z,73.83
2023-03-06T23:56:53.147Z,74.01
2023-03-06T23:57:56.988Z,74.05
2023-03-06T23:59:00.674Z,73.86
